Time;durP1;ratioP1;P1;durP2;ratioP2;P2;SDS_P1;SDS_P2;PMS_P1;PMS_P2;Temp;Humidity;BMP_temperature;BMP_pressure;BME280_temperature;BME280_humidity;BME280_pressure;Samples;Min_cycle;Max_cycle;Signal;HPM_P1;HPM_P2
2021/09/07 00:00:17;;;;;;;17.60;13.57;;;16.10;99.90;;;;;;5052555;28;20288;-66
2021/09/07 00:02:45;;;;;;;16.65;14.13;;;16.10;99.90;;;;;;5052544;28;20224;-66
2021/09/07 00:05:15;;;;;;;15.68;13.43;;;16.00;99.90;;;;;;5052535;28;20255;-65
2021/09/07 00:07:43;;;;;;;17.98;14.57;;;16.00;99.90;;;;;;5052490;28;20556;-66
2021/09/07 00:10:13;;;;;;;15.95;13.05;;;15.90;99.90;;;;;;5052690;28;20201;-66
2021/09/07 00:12:42;;;;;;;15.82;13.40;;;15.80;99.90;;;;;;5052861;28;20303;-66
2021/09/07 00:15:13;;;;;;;16.83;14.00;;;15.80;99.90;;;;;;5052760;28;20552;-66
2021/09/07 00:17:42;;;;;;;18.67;14.18;;;15.80;99.90;;;;;;5052496;28;20192;-67
2021/09/07 00:20:10;;;;;;;17.23;14.18;;;15.70;99.90;;;;;;5052388;28;20204;-66
2021/09/07 00:22:41;;;;;;;16.80;13.77;;;15.70;99.90;;;;;;5052652;28;20350;-67
2021/09/07 00:25:09;;;;;;;16.50;13.75;;;15.70;99.90;;;;;;5052663;28;20260;-66
2021/09/07 00:27:38;;;;;;;16.33;13.55;;;15.70;99.90;;;;;;5052330;28;20683;-66
2021/09/07 00:30:07;;;;;;;16.50;13.88;;;15.60;99.90;;;;;;5052563;28;20290;-66
2021/09/07 00:32:35;;;;;;;15.82;13.95;;;15.60;99.90;;;;;;5052396;28;20241;-65
2021/09/07 00:35:03;;;;;;;17.40;13.68;;;15.60;99.90;;;;;;5052231;28;20197;-66
2021/09/07 00:37:31;;;;;;;17.73;13.80;;;15.70;99.90;;;;;;5052577;28;20201;-65
2021/09/07 00:40:00;;;;;;;15.88;13.30;;;15.70;99.90;;;;;;5052388;28;20208;-65
2021/09/07 00:42:28;;;;;;;15.80;13.13;;;15.60;99.90;;;;;;5052161;28;20695;-66
2021/09/07 00:44:56;;;;;;;15.73;12.93;;;15.60;99.90;;;;;;5052485;28;20551;-66
2021/09/07 00:47:24;;;;;;;16.55;13.00;;;15.60;99.90;;;;;;5052406;28;20208;-66
2021/09/07 00:49:51;;;;;;;14.73;12.55;;;15.60;99.90;;;;;;5052106;28;20204;-66
2021/09/07 00:52:20;;;;;;;14.20;12.23;;;15.60;99.90;;;;;;5051981;28;20201;-65
2021/09/07 00:54:49;;;;;;;16.13;13.27;;;15.60;99.90;;;;;;5052208;28;20197;-65
2021/09/07 00:57:18;;;;;;;18.30;14.32;;;15.60;99.90;;;;;;5052276;28;20208;-65
2021/09/07 00:59:47;;;;;;;15.25;12.68;;;15.70;99.90;;;;;;5052141;28;20288;-65
2021/09/07 01:02:15;;;;;;;14.52;12.27;;;15.70;99.90;;;;;;5052265;28;20207;-66
2021/09/07 01:04:44;;;;;;;15.02;12.55;;;15.80;99.90;;;;;;5051626;28;20704;-66
2021/09/07 01:07:11;;;;;;;14.38;12.73;;;15.80;99.90;;;;;;5052150;28;20214;-65
2021/09/07 01:09:40;;;;;;;16.20;12.88;;;15.80;99.90;;;;;;5052108;28;20247;-65
2021/09/07 01:12:09;;;;;;;15.40;12.40;;;15.80;99.90;;;;;;5051942;28;20669;-67
2021/09/07 01:14:40;;;;;;;15.57;12.82;;;15.80;99.90;;;;;;5052067;28;20194;-66
2021/09/07 01:17:14;;;;;;;16.40;12.85;;;15.80;99.90;;;;;;5052168;28;20214;-65
2021/09/07 01:19:45;;;;;;;16.95;12.93;;;15.70;99.90;;;;;;5052056;28;20284;-66
2021/09/07 01:22:14;;;;;;;16.88;13.30;;;15.70;99.90;;;;;;5051987;28;20291;-66
2021/09/07 01:24:43;;;;;;;15.95;12.73;;;15.60;99.90;;;;;;5051923;28;20218;-65
2021/09/07 01:27:11;;;;;;;16.75;12.73;;;15.60;99.90;;;;;;5052147;28;20208;-65
2021/09/07 01:29:40;;;;;;;17.52;13.40;;;15.60;99.90;;;;;;5052266;28;20673;-66
2021/09/07 01:32:10;;;;;;;17.23;13.13;;;15.50;99.90;;;;;;5055550;28;20202;-64
2021/09/07 01:34:38;;;;;;;14.93;12.73;;;15.50;99.90;;;;;;5055492;28;20573;-66
2021/09/07 01:37:06;;;;;;;16.13;13.13;;;15.50;99.90;;;;;;5055341;28;20289;-67
2021/09/07 01:39:36;;;;;;;16.17;13.05;;;15.60;99.90;;;;;;5055126;28;20298;-66
2021/09/07 01:42:06;;;;;;;17.38;12.73;;;15.50;99.90;;;;;;5055054;28;20296;-66
2021/09/07 01:44:34;;;;;;;13.90;11.82;;;15.50;99.90;;;;;;5055277;28;20202;-66
2021/09/07 01:47:02;;;;;;;15.02;12.48;;;15.50;99.90;;;;;;5054918;28;20292;-65
2021/09/07 01:49:30;;;;;;;15.35;12.60;;;15.50;99.90;;;;;;5055065;28;20201;-65
2021/09/07 01:51:58;;;;;;;14.05;12.40;;;15.50;99.90;;;;;;5054996;28;20217;-66
2021/09/07 01:54:26;;;;;;;16.85;12.80;;;15.50;99.90;;;;;;5055155;28;20197;-65
2021/09/07 01:56:53;;;;;;;14.80;12.48;;;15.50;99.90;;;;;;5055085;28;20201;-65
2021/09/07 01:59:24;;;;;;;15.07;12.38;;;15.50;99.90;;;;;;5055195;28;20197;-66
2021/09/07 02:01:51;;;;;;;14.73;12.02;;;15.50;99.90;;;;;;5055016;28;20554;-66
2021/09/07 02:04:20;;;;;;;16.77;13.38;;;15.50;99.90;;;;;;5055000;28;20225;-66
2021/09/07 02:06:47;;;;;;;16.15;13.13;;;15.60;99.90;;;;;;5054458;28;20255;-65
2021/09/07 02:09:15;;;;;;;15.98;13.30;;;15.60;99.90;;;;;;5055250;28;20205;-65
2021/09/07 02:11:43;;;;;;;18.05;13.43;;;15.60;99.90;;;;;;5054999;28;20322;-65
2021/09/07 02:14:11;;;;;;;16.42;13.57;;;15.60;99.90;;;;;;5054929;28;20204;-66
2021/09/07 02:16:40;;;;;;;16.45;12.88;;;15.60;99.90;;;;;;5054502;28;20296;-66
2021/09/07 02:19:08;;;;;;;15.82;13.82;;;15.60;99.90;;;;;;5054582;28;20212;-66
2021/09/07 02:21:36;;;;;;;17.65;13.57;;;15.60;99.90;;;;;;5054623;28;20260;-66
2021/09/07 02:24:04;;;;;;;16.23;13.75;;;15.50;99.90;;;;;;5054313;28;20586;-66
2021/09/07 02:26:32;;;;;;;17.35;13.50;;;15.50;99.90;;;;;;5054597;28;20197;-65
2021/09/07 02:29:00;;;;;;;16.33;14.20;;;15.50;99.90;;;;;;5054596;28;20211;-66
2021/09/07 02:31:28;;;;;;;17.67;14.05;;;15.60;99.90;;;;;;5054532;28;20225;-66
2021/09/07 02:33:57;;;;;;;15.93;12.90;;;15.50;99.90;;;;;;5054375;28;20197;-65
2021/09/07 02:36:26;;;;;;;17.23;13.38;;;15.50;99.90;;;;;;5053774;28;20236;-66
2021/09/07 02:38:55;;;;;;;17.63;12.68;;;15.50;99.90;;;;;;5054012;28;20788;-65
2021/09/07 02:41:23;;;;;;;18.55;13.27;;;15.50;99.90;;;;;;5053893;28;20205;-66
2021/09/07 02:43:51;;;;;;;14.68;12.05;;;15.50;99.90;;;;;;5054162;28;20317;-66
2021/09/07 02:46:19;;;;;;;16.52;13.38;;;15.50;99.90;;;;;;5053870;28;20272;-65
2021/09/07 02:48:46;;;;;;;15.18;12.68;;;15.50;99.90;;;;;;5054134;28;20212;-65
2021/09/07 02:51:16;;;;;;;16.00;12.93;;;15.50;99.90;;;;;;5053567;28;20928;-65
2021/09/07 02:53:44;;;;;;;14.05;12.10;;;15.50;99.90;;;;;;5053706;28;20193;-66
2021/09/07 02:56:14;;;;;;;16.25;12.38;;;15.50;99.90;;;;;;5053935;28;20236;-66
2021/09/07 02:58:41;;;;;;;15.57;12.27;;;15.50;99.90;;;;;;5053839;28;20201;-65
2021/09/07 03:01:09;;;;;;;15.43;12.23;;;15.50;99.90;;;;;;5053866;28;20305;-65
2021/09/07 03:03:37;;;;;;;15.43;12.57;;;15.50;99.90;;;;;;5053533;28;20304;-65
2021/09/07 03:06:05;;;;;;;15.65;13.10;;;15.50;99.90;;;;;;5053262;28;20244;-65
2021/09/07 03:08:35;;;;;;;16.15;13.27;;;15.50;99.90;;;;;;5053823;28;20284;-66
2021/09/07 03:11:02;;;;;;;17.63;13.10;;;15.50;99.90;;;;;;5053633;28;20205;-65
2021/09/07 03:13:30;;;;;;;17.70;13.68;;;15.50;99.90;;;;;;5053953;28;20202;-65
2021/09/07 03:15:58;;;;;;;17.30;12.68;;;15.50;99.90;;;;;;5053731;28;20201;-65
2021/09/07 03:18:26;;;;;;;15.63;12.90;;;15.50;99.90;;;;;;5053591;28;20206;-66
2021/09/07 03:20:54;;;;;;;15.35;13.02;;;15.50;99.90;;;;;;5052970;28;20205;-64
2021/09/07 03:23:22;;;;;;;17.75;13.35;;;15.50;99.90;;;;;;5053523;28;20212;-66
2021/09/07 03:25:51;;;;;;;18.00;12.98;;;15.50;99.90;;;;;;5052973;28;20225;-65
2021/09/07 03:28:18;;;;;;;16.50;13.32;;;15.50;99.90;;;;;;5053435;28;20201;-65
2021/09/07 03:30:46;;;;;;;16.55;12.82;;;15.40;99.90;;;;;;5053349;28;20288;-66
2021/09/07 03:33:14;;;;;;;15.65;12.90;;;15.50;99.90;;;;;;5053036;28;20203;-65
2021/09/07 03:35:42;;;;;;;15.18;12.77;;;15.50;99.90;;;;;;5052909;28;20198;-66
2021/09/07 03:38:12;;;;;;;14.13;12.63;;;15.50;99.90;;;;;;5053094;28;20209;-65
2021/09/07 03:40:40;;;;;;;17.45;12.98;;;15.40;99.90;;;;;;5052883;28;20205;-65
2021/09/07 03:43:09;;;;;;;16.42;12.80;;;15.40;99.90;;;;;;5053029;28;20212;-66
2021/09/07 03:45:36;;;;;;;16.70;13.48;;;15.40;99.90;;;;;;5052959;28;20221;-65
2021/09/07 03:48:05;;;;;;;15.77;12.25;;;15.40;99.90;;;;;;5052914;28;20288;-66
2021/09/07 03:50:33;;;;;;;14.88;12.60;;;15.40;99.90;;;;;;5052419;28;20692;-66
2021/09/07 03:53:01;;;;;;;17.35;13.15;;;15.30;99.90;;;;;;5052130;28;20649;-65
2021/09/07 03:55:28;;;;;;;15.52;12.82;;;15.40;99.90;;;;;;5052814;28;20219;-65
2021/09/07 03:57:56;;;;;;;16.67;13.18;;;15.40;99.90;;;;;;5052760;28;20206;-66
2021/09/07 04:00:25;;;;;;;17.83;13.73;;;15.30;99.90;;;;;;5052981;28;20539;-65
2021/09/07 04:02:53;;;;;;;18.88;13.38;;;15.40;99.90;;;;;;5052786;28;20201;-65
2021/09/07 04:05:21;;;;;;;21.10;13.55;;;15.40;99.90;;;;;;5051943;28;20732;-65
2021/09/07 04:07:49;;;;;;;16.80;13.38;;;15.40;99.90;;;;;;5052655;28;20201;-66
2021/09/07 04:10:17;;;;;;;15.05;13.00;;;15.40;99.90;;;;;;5052614;28;20201;-66
2021/09/07 04:12:46;;;;;;;17.38;13.98;;;15.30;99.90;;;;;;5052687;28;20198;-65
2021/09/07 04:15:13;;;;;;;17.25;13.63;;;15.30;99.90;;;;;;5052335;28;20695;-66
2021/09/07 04:17:42;;;;;;;17.23;12.98;;;15.30;99.90;;;;;;5052432;28;20209;-64
2021/09/07 04:20:11;;;;;;;16.08;12.90;;;15.20;99.90;;;;;;5052240;28;20203;-67
2021/09/07 04:22:39;;;;;;;17.42;14.10;;;15.20;99.90;;;;;;5052583;28;20198;-66
2021/09/07 04:25:08;;;;;;;17.05;13.25;;;15.20;99.90;;;;;;5052199;28;20217;-66
2021/09/07 04:27:37;;;;;;;18.95;15.10;;;15.20;99.90;;;;;;5052646;28;20204;-65
2021/09/07 04:30:06;;;;;;;18.15;14.38;;;15.20;99.90;;;;;;5052659;28;20201;-66
2021/09/07 04:32:34;;;;;;;21.40;14.48;;;15.20;99.90;;;;;;5052341;28;20662;-65
2021/09/07 04:35:04;;;;;;;18.77;14.70;;;15.20;99.90;;;;;;5052058;28;20208;-67
2021/09/07 04:37:32;;;;;;;18.23;14.25;;;15.20;99.90;;;;;;5052508;28;20186;-67
2021/09/07 04:40:00;;;;;;;17.70;13.93;;;15.20;99.90;;;;;;5052233;28;20216;-65
2021/09/07 04:42:28;;;;;;;20.38;14.60;;;15.20;99.90;;;;;;5052527;28;20207;-66
2021/09/07 04:44:56;;;;;;;17.42;14.48;;;15.20;99.90;;;;;;5052338;28;20221;-66
2021/09/07 04:47:24;;;;;;;19.92;14.45;;;15.20;99.90;;;;;;5052392;28;20201;-65
2021/09/07 04:49:51;;;;;;;16.27;13.77;;;15.20;99.90;;;;;;5051807;28;20210;-65
2021/09/07 04:52:20;;;;;;;21.10;16.02;;;15.20;99.90;;;;;;5052280;28;20207;-66
2021/09/07 04:54:48;;;;;;;20.02;15.43;;;15.20;99.90;;;;;;5052388;28;20217;-66
2021/09/07 04:57:16;;;;;;;18.45;15.00;;;15.20;99.90;;;;;;5052054;28;20205;-66
2021/09/07 04:59:44;;;;;;;20.17;14.27;;;15.20;99.90;;;;;;5052225;28;20206;-65
2021/09/07 05:02:11;;;;;;;18.45;14.73;;;15.30;99.90;;;;;;5052428;28;20208;-65
2021/09/07 05:04:40;;;;;;;17.35;14.20;;;15.30;99.90;;;;;;5052652;28;20600;-65
2021/09/07 05:07:07;;;;;;;19.42;14.70;;;15.30;99.90;;;;;;5056176;28;20186;-65
2021/09/07 05:09:36;;;;;;;17.92;14.18;;;15.30;99.90;;;;;;5056301;28;20211;-65
2021/09/07 05:12:05;;;;;;;18.73;14.52;;;15.30;99.90;;;;;;5055850;28;20201;-65
2021/09/07 05:14:33;;;;;;;16.52;14.48;;;15.40;99.90;;;;;;5055418;28;20577;-66
2021/09/07 05:17:01;;;;;;;18.02;14.77;;;15.40;99.90;;;;;;5055411;28;20198;-66
2021/09/07 05:19:29;;;;;;;18.40;14.63;;;15.40;99.90;;;;;;5055460;28;20648;-66
2021/09/07 05:21:56;;;;;;;19.50;14.32;;;15.40;99.90;;;;;;5056335;28;20205;-65
2021/09/07 05:24:24;;;;;;;18.52;13.88;;;15.50;99.90;;;;;;5057546;28;20203;-65
2021/09/07 05:26:53;;;;;;;17.98;13.00;;;15.50;99.90;;;;;;5056090;28;20221;-64
2021/09/07 05:29:21;;;;;;;17.17;14.68;;;15.50;99.90;;;;;;5055970;28;20201;-64
2021/09/07 05:31:48;;;;;;;18.83;13.52;;;15.50;99.90;;;;;;5056424;28;20208;-66
2021/09/07 05:34:16;;;;;;;18.58;14.30;;;15.50;99.90;;;;;;5056620;28;20201;-65
2021/09/07 05:36:44;;;;;;;16.83;12.98;;;15.50;99.90;;;;;;5056924;28;20252;-65
2021/09/07 05:39:12;;;;;;;22.45;14.50;;;15.50;99.90;;;;;;5057017;28;20206;-65
2021/09/07 05:41:40;;;;;;;18.65;14.63;;;15.50;99.90;;;;;;5056090;28;20201;-65
2021/09/07 05:44:09;;;;;;;17.27;13.98;;;15.50;99.90;;;;;;5055831;28;20212;-65
2021/09/07 05:46:37;;;;;;;17.65;13.43;;;15.50;99.90;;;;;;5055396;28;20229;-66
2021/09/07 05:49:05;;;;;;;18.95;14.50;;;15.50;99.90;;;;;;5054476;28;20208;-65
2021/09/07 05:51:33;;;;;;;16.52;13.38;;;15.60;99.90;;;;;;5055352;28;20216;-66
2021/09/07 05:54:01;;;;;;;19.02;13.85;;;15.60;99.90;;;;;;5055643;28;20202;-65
2021/09/07 05:56:29;;;;;;;20.83;14.93;;;15.60;99.90;;;;;;5055306;28;20220;-65
2021/09/07 05:58:57;;;;;;;19.88;15.48;;;15.70;99.90;;;;;;5055100;28;20622;-65
2021/09/07 06:01:26;;;;;;;18.10;14.05;;;15.70;99.90;;;;;;5054901;28;20292;-66
2021/09/07 06:03:55;;;;;;;18.80;14.38;;;15.70;99.90;;;;;;5055220;28;20229;-65
2021/09/07 06:06:23;;;;;;;18.15;13.73;;;15.80;99.90;;;;;;5054469;28;20233;-65
2021/09/07 06:08:51;;;;;;;17.58;14.43;;;15.80;99.90;;;;;;5055219;28;20206;-65
2021/09/07 06:11:19;;;;;;;17.80;13.60;;;15.80;99.90;;;;;;5055343;28;20201;-66
2021/09/07 06:13:47;;;;;;;18.38;13.65;;;15.90;99.90;;;;;;5054790;28;20197;-65
2021/09/07 06:16:15;;;;;;;19.02;15.20;;;15.90;99.90;;;;;;5054280;28;20507;-66
2021/09/07 06:18:44;;;;;;;17.70;13.32;;;15.90;99.90;;;;;;5054860;28;20233;-66
2021/09/07 06:21:12;;;;;;;20.60;15.07;;;16.00;99.90;;;;;;5054420;28;20224;-65
2021/09/07 06:23:55;;;;;;;19.23;15.02;;;16.10;99.90;;;;;;5054657;28;20213;-66
2021/09/07 06:26:23;;;;;;;19.50;14.20;;;16.10;99.90;;;;;;5055617;28;20356;-65
2021/09/07 06:28:50;;;;;;;17.27;13.68;;;16.30;99.90;;;;;;5054648;28;20676;-67
2021/09/07 06:31:18;;;;;;;19.45;13.75;;;16.40;99.90;;;;;;5055119;28;20201;-66
2021/09/07 06:33:47;;;;;;;16.17;13.30;;;16.50;99.90;;;;;;5054465;28;20201;-66
2021/09/07 06:36:15;;;;;;;15.45;13.05;;;16.70;99.90;;;;;;5053909;28;20661;-66
2021/09/07 06:38:43;;;;;;;14.65;12.27;;;16.90;99.90;;;;;;5054218;28;20307;-66
2021/09/07 06:41:11;;;;;;;17.52;13.75;;;17.00;99.90;;;;;;5054456;28;20208;-66
2021/09/07 06:43:39;;;;;;;14.27;12.20;;;17.20;99.90;;;;;;5054347;28;20206;-64
2021/09/07 06:46:06;;;;;;;16.98;13.75;;;17.30;99.90;;;;;;5053919;28;20221;-66
2021/09/07 06:48:34;;;;;;;16.88;13.50;;;17.30;99.90;;;;;;5054062;28;20574;-66
2021/09/07 06:51:04;;;;;;;19.75;14.18;;;17.40;99.90;;;;;;5053979;28;20202;-66
2021/09/07 06:53:31;;;;;;;17.20;13.05;;;17.50;99.90;;;;;;5054292;28;20680;-67
2021/09/07 06:55:59;;;;;;;20.48;13.55;;;17.70;99.90;;;;;;5054316;28;20193;-66
2021/09/07 06:58:27;;;;;;;19.42;13.90;;;17.80;99.90;;;;;;5054219;28;20194;-65
2021/09/07 07:00:55;;;;;;;18.70;14.05;;;17.90;99.90;;;;;;5054259;28;20197;-65
2021/09/07 07:03:23;;;;;;;19.35;14.63;;;18.00;99.90;;;;;;5054175;28;20218;-66
2021/09/07 07:05:51;;;;;;;16.90;13.27;;;18.10;99.90;;;;;;5053638;28;20233;-67
2021/09/07 07:08:20;;;;;;;15.85;13.23;;;18.20;99.90;;;;;;5053886;28;20235;-66
2021/09/07 07:10:48;;;;;;;17.75;13.85;;;18.30;99.90;;;;;;5053845;28;20244;-66
2021/09/07 07:13:15;;;;;;;18.35;13.45;;;18.50;99.90;;;;;;5053878;28;20291;-66
2021/09/07 07:15:43;;;;;;;15.00;12.65;;;18.60;99.90;;;;;;5054190;28;20203;-66
2021/09/07 07:18:11;;;;;;;18.42;12.63;;;18.70;99.90;;;;;;5053636;28;20205;-66
2021/09/07 07:20:39;;;;;;;17.42;13.25;;;18.90;99.90;;;;;;5053601;28;20201;-66
2021/09/07 07:23:07;;;;;;;19.95;14.02;;;19.00;99.90;;;;;;5053795;28;20235;-66
2021/09/07 07:25:36;;;;;;;16.08;12.98;;;19.00;99.90;;;;;;5053821;28;20201;-66
2021/09/07 07:28:04;;;;;;;19.10;13.40;;;19.10;99.90;;;;;;5053040;28;20222;-66
2021/09/07 07:30:32;;;;;;;17.20;13.57;;;19.20;99.90;;;;;;5053794;28;20220;-66
2021/09/07 07:33:00;;;;;;;17.05;13.25;;;19.30;99.90;;;;;;5053486;28;20201;-65
2021/09/07 07:35:28;;;;;;;16.77;13.43;;;19.30;99.90;;;;;;5053371;28;20208;-65
2021/09/07 07:37:56;;;;;;;19.10;14.63;;;19.30;99.90;;;;;;5053312;28;20201;-66
2021/09/07 07:40:24;;;;;;;16.95;13.60;;;19.40;99.90;;;;;;5053304;28;20296;-65
2021/09/07 07:42:54;;;;;;;17.20;13.88;;;19.40;99.90;;;;;;5053473;28;20296;-65
2021/09/07 07:45:21;;;;;;;16.77;13.75;;;19.40;99.90;;;;;;5053207;28;20292;-65
2021/09/07 07:47:49;;;;;;;17.35;14.65;;;19.40;99.90;;;;;;5053094;28;20332;-67
2021/09/07 07:50:17;;;;;;;18.65;13.85;;;19.40;99.90;;;;;;5052366;28;20288;-66
2021/09/07 07:52:45;;;;;;;18.98;14.88;;;19.30;99.90;;;;;;5052477;28;20300;-67
2021/09/07 07:55:13;;;;;;;18.67;13.77;;;19.40;99.90;;;;;;5052508;28;20205;-65
2021/09/07 07:57:41;;;;;;;15.55;12.70;;;19.40;99.90;;;;;;5052885;28;20288;-66
2021/09/07 08:00:12;;;;;;;17.17;13.93;;;19.50;99.90;;;;;;5052575;28;20327;-65
2021/09/07 08:02:40;;;;;;;17.08;13.80;;;19.60;99.90;;;;;;5053034;28;20287;-67
2021/09/07 08:05:12;;;;;;;17.52;13.82;;;19.60;99.90;;;;;;5052456;28;20241;-65
2021/09/07 08:07:42;;;;;;;18.38;13.80;;;19.60;99.90;;;;;;5052854;28;20210;-67
2021/09/07 08:10:11;;;;;;;17.35;13.13;;;19.60;99.90;;;;;;5052805;28;20197;-66
2021/09/07 08:12:38;;;;;;;15.05;13.43;;;19.80;99.90;;;;;;5052948;28;20288;-65
2021/09/07 08:15:07;;;;;;;18.00;14.55;;;20.00;99.90;;;;;;5052850;28;20288;-66
2021/09/07 08:17:36;;;;;;;15.73;13.30;;;20.30;99.90;;;;;;5052621;28;20204;-67
2021/09/07 08:20:05;;;;;;;21.90;15.13;;;20.40;99.90;;;;;;5052647;28;20308;-66
2021/09/07 08:22:33;;;;;;;16.90;13.80;;;20.70;99.90;;;;;;5052812;28;20205;-65
2021/09/07 08:25:01;;;;;;;17.75;15.15;;;20.70;99.90;;;;;;5052672;28;20316;-66
2021/09/07 08:27:29;;;;;;;16.33;12.18;;;20.70;99.90;;;;;;5052419;28;20704;-66
2021/09/07 08:29:56;;;;;;;16.98;12.80;;;20.80;99.90;;;;;;5052821;28;20287;-66
2021/09/07 08:32:24;;;;;;;16.38;13.15;;;20.90;99.90;;;;;;5052461;28;20300;-66
2021/09/07 08:34:53;;;;;;;17.02;14.32;;;20.80;99.90;;;;;;5052556;28;20223;-67
2021/09/07 08:37:21;;;;;;;15.30;13.18;;;20.70;99.90;;;;;;5052466;28;20232;-66
2021/09/07 08:39:49;;;;;;;15.43;13.35;;;20.60;99.90;;;;;;5055087;28;20201;-66
2021/09/07 08:42:17;;;;;;;16.45;12.00;;;20.50;99.90;;;;;;5056759;28;20299;-66
2021/09/07 08:44:47;;;;;;;13.10;11.57;;;20.50;99.90;;;;;;5056647;28;20217;-65
2021/09/07 08:47:16;;;;;;;15.18;13.13;;;20.40;99.90;;;;;;5056277;28;20699;-65
2021/09/07 08:49:46;;;;;;;15.20;12.75;;;20.20;99.90;;;;;;5056549;28;20227;-66
2021/09/07 08:52:18;;;;;;;19.73;15.75;;;20.10;99.90;;;;;;5056561;28;20209;-66
2021/09/07 08:54:46;;;;;;;16.45;13.75;;;19.90;99.90;;;;;;5056879;28;20186;-66
2021/09/07 08:57:14;;;;;;;18.25;15.32;;;19.80;99.90;;;;;;5057107;28;20193;-66
2021/09/07 08:59:42;;;;;;;15.63;13.25;;;19.80;99.90;;;;;;5056347;28;20756;-65
2021/09/07 09:02:14;;;;;;;15.73;13.32;;;19.70;99.90;;;;;;5056407;28;20225;-66
2021/09/07 09:04:46;;;;;;;17.08;12.85;;;19.80;99.90;;;;;;5055882;28;20757;-66
2021/09/07 09:07:22;;;;;;;15.45;12.93;;;19.90;99.90;;;;;;5056198;28;20295;-65
2021/09/07 09:09:51;;;;;;;16.95;14.00;;;20.10;99.90;;;;;;5055831;28;20658;-66
2021/09/07 09:12:29;;;;;;;18.30;14.43;;;20.30;99.90;;;;;;5055906;28;20292;-65
2021/09/07 09:14:58;;;;;;;18.60;14.30;;;20.40;99.90;;;;;;5055695;28;20600;-66
2021/09/07 09:17:28;;;;;;;17.48;13.88;;;20.50;99.90;;;;;;5055729;28;20565;-66
2021/09/07 09:19:59;;;;;;;17.30;14.32;;;20.60;99.90;;;;;;5055646;28;20213;-65
2021/09/07 09:22:46;;;;;;;19.60;14.05;;;20.70;99.90;;;;;;5055470;28;20209;-68
2021/09/07 09:25:35;;;;;;;14.57;12.45;;;20.70;99.90;;;;;;5055735;28;20196;-66
2021/09/07 09:28:21;;;;;;;17.02;13.07;;;20.80;99.90;;;;;;5055383;28;20197;-66
2021/09/07 09:30:52;;;;;;;16.58;14.15;;;20.90;99.90;;;;;;5055361;28;20188;-65
2021/09/07 09:33:21;;;;;;;15.82;12.68;;;21.00;99.90;;;;;;5055284;28;20185;-67
2021/09/07 09:35:52;;;;;;;19.08;13.65;;;21.00;99.90;;;;;;5053679;28;20236;-65
2021/09/07 09:38:22;;;;;;;16.35;14.15;;;21.20;99.90;;;;;;5050916;28;20222;-65
2021/09/07 09:40:55;;;;;;;15.88;13.02;;;21.30;99.90;;;;;;5055407;28;20211;-66
2021/09/07 09:43:28;;;;;;;19.55;14.02;;;21.20;99.90;;;;;;5055027;28;20673;-66
2021/09/07 09:45:57;;;;;;;15.85;12.32;;;21.20;99.90;;;;;;5055393;28;20289;-66
2021/09/07 09:48:27;;;;;;;12.68;10.93;;;21.30;99.90;;;;;;5055246;28;20221;-66
2021/09/07 09:50:56;;;;;;;13.13;10.70;;;21.20;99.90;;;;;;5054177;28;20276;-67
2021/09/07 09:53:28;;;;;;;14.75;10.77;;;21.30;99.90;;;;;;5054882;28;20594;-66
2021/09/07 09:55:56;;;;;;;14.55;12.02;;;21.20;99.90;;;;;;5055193;28;20204;-66
2021/09/07 09:58:26;;;;;;;13.15;11.68;;;21.30;99.90;;;;;;5055120;28;20288;-67
2021/09/07 10:00:54;;;;;;;16.20;13.02;;;21.30;99.90;;;;;;5055083;28;20296;-67
2021/09/07 10:03:23;;;;;;;15.65;12.88;;;21.30;99.90;;;;;;5055026;28;20201;-66
2021/09/07 10:05:52;;;;;;;16.95;13.13;;;21.30;99.90;;;;;;5054522;28;20591;-66
2021/09/07 10:08:20;;;;;;;14.10;11.65;;;21.40;99.90;;;;;;5054770;28;20229;-65
2021/09/07 10:10:58;;;;;;;14.02;11.07;;;21.40;99.90;;;;;;5054649;28;20557;-66
2021/09/07 10:13:29;;;;;;;15.13;12.57;;;21.50;99.90;;;;;;5054856;28;20181;-66
2021/09/07 10:15:59;;;;;;;14.75;11.48;;;21.40;99.90;;;;;;5054889;28;20192;-66
2021/09/07 10:18:43;;;;;;;14.00;10.73;;;21.40;99.90;;;;;;5054811;28;20670;-66
2021/09/07 10:24:02;;;;;;;18.95;12.45;;;21.40;99.90;;;;;;5054228;28;20656;-66
2021/09/07 10:26:56;;;;;;;16.30;12.35;;;21.50;99.90;;;;;;5054585;28;20715;-65
2021/09/07 10:29:42;;;;;;;14.30;12.20;;;21.60;99.90;;;;;;5054446;28;20217;-66
2021/09/07 10:32:28;;;;;;;13.27;11.88;;;21.70;99.90;;;;;;5054133;28;20609;-66
2021/09/07 10:35:05;;;;;;;13.80;11.32;;;21.70;99.90;;;;;;5054334;28;20192;-67
2021/09/07 10:38:07;;;;;;;15.98;12.27;;;21.70;99.90;;;;;;5053955;28;20680;-67
2021/09/07 10:40:49;;;;;;;16.45;12.02;;;21.70;99.90;;;;;;5053929;28;20288;-66
2021/09/07 10:43:54;;;;;;;14.90;12.40;;;21.80;99.90;;;;;;5054089;28;20208;-66
2021/09/07 10:46:43;;;;;;;14.52;11.15;;;21.90;99.90;;;;;;5034491;28;20197;-65
2021/09/07 10:49:26;;;;;;;13.43;11.13;;;22.00;99.90;;;;;;5034343;28;20202;-67
2021/09/07 10:52:15;;;;;;;15.55;11.45;;;22.10;99.90;;;;;;5033885;28;20190;-66
2021/09/07 10:54:48;;;;;;;13.57;10.82;;;22.20;99.90;;;;;;5033997;28;20229;-67
2021/09/07 10:57:53;;;;;;;12.90;10.70;;;22.30;99.90;;;;;;5034137;28;20188;-65
2021/09/07 11:00:33;;;;;;;15.05;12.45;;;22.30;99.90;;;;;;5033724;28;20661;-66
2021/09/07 11:03:02;;;;;;;15.20;10.65;;;22.20;99.90;;;;;;5033966;28;20193;-66
2021/09/07 11:05:51;;;;;;;14.82;12.85;;;22.20;99.90;;;;;;5033372;28;20238;-66
2021/09/07 11:08:40;;;;;;;14.98;12.27;;;22.30;99.90;;;;;;5030433;28;20275;-66
2021/09/07 11:11:26;;;;;;;14.23;12.02;;;22.30;99.90;;;;;;5033901;28;20566;-65
2021/09/07 11:14:08;;;;;;;11.88;10.63;;;22.30;99.90;;;;;;5033676;28;20265;-66
2021/09/07 11:16:37;;;;;;;14.00;12.50;;;22.40;99.90;;;;;;5033749;28;20297;-66
2021/09/07 11:19:05;;;;;;;15.73;11.85;;;22.60;99.90;;;;;;5033576;28;20691;-67
2021/09/07 11:21:33;;;;;;;12.20;10.80;;;22.70;99.90;;;;;;5033306;28;20204;-66
2021/09/07 11:24:02;;;;;;;13.77;11.63;;;22.70;99.90;;;;;;5033608;28;20202;-66
2021/09/07 11:26:30;;;;;;;13.48;11.23;;;22.70;99.90;;;;;;5033420;28;20208;-67
2021/09/07 11:28:58;;;;;;;12.93;10.25;;;22.80;99.90;;;;;;5033078;28;20577;-67
2021/09/07 11:31:26;;;;;;;11.93;10.40;;;22.90;99.90;;;;;;5033311;28;20204;-68
2021/09/07 11:33:55;;;;;;;10.95;9.73;;;22.80;99.90;;;;;;5033197;28;20289;-66
2021/09/07 11:36:23;;;;;;;11.98;10.00;;;22.90;99.90;;;;;;5033021;28;20289;-65
2021/09/07 11:38:52;;;;;;;13.02;11.02;;;23.00;99.90;;;;;;5033272;28;20289;-66
2021/09/07 11:41:22;;;;;;;11.50;9.98;;;23.10;99.90;;;;;;5032858;28;20749;-66
2021/09/07 11:43:51;;;;;;;11.68;9.52;;;23.20;99.90;;;;;;5034338;28;20237;-65
2021/09/07 11:46:21;;;;;;;11.55;10.30;;;23.30;99.90;;;;;;5052782;28;20720;-66
2021/09/07 11:48:50;;;;;;;13.48;9.48;;;23.40;99.90;;;;;;5052961;28;20255;-66
2021/09/07 11:51:25;;;;;;;12.23;9.77;;;23.50;99.90;;;;;;5052749;28;20197;-65
2021/09/07 11:53:54;;;;;;;9.95;8.93;;;23.40;99.90;;;;;;5052665;28;20189;-66
2021/09/07 11:56:23;;;;;;;10.77;9.45;;;23.30;99.90;;;;;;5052817;28;20198;-67
2021/09/07 11:58:51;;;;;;;9.93;8.93;;;23.10;99.90;;;;;;5052760;28;20193;-66
2021/09/07 12:01:22;;;;;;;10.13;9.07;;;23.00;99.90;;;;;;5053036;28;20207;-66
2021/09/07 12:04:03;;;;;;;11.00;8.95;;;23.10;99.90;;;;;;5052674;28;20193;-65
2021/09/07 12:06:36;;;;;;;11.05;9.23;;;23.00;99.90;;;;;;5052037;28;20236;-66
2021/09/07 12:09:13;;;;;;;11.13;9.43;;;23.00;99.90;;;;;;5052394;28;20244;-66
2021/09/07 12:11:42;;;;;;;9.73;8.73;;;23.00;99.90;;;;;;5052653;28;20224;-67
2021/09/07 12:14:11;;;;;;;10.00;9.00;;;22.90;99.90;;;;;;5052251;28;20657;-66
2021/09/07 12:16:54;;;;;;;9.00;7.88;;;22.90;99.90;;;;;;5052674;28;20213;-66
2021/09/07 12:19:29;;;;;;;11.18;8.27;;;22.80;99.90;;;;;;5052444;28;20626;-65
2021/09/07 12:22:11;;;;;;;10.40;8.57;;;22.80;99.90;;;;;;5052362;28;20185;-66
2021/09/07 12:24:41;;;;;;;8.07;7.15;;;22.80;99.90;;;;;;5052190;28;20612;-66
2021/09/07 12:27:26;;;;;;;9.35;8.15;;;22.90;99.90;;;;;;5052182;28;20186;-66
2021/09/07 12:30:10;;;;;;;9.85;8.55;;;22.90;99.90;;;;;;5052539;28;20206;-67
2021/09/07 12:33:06;;;;;;;9.40;7.63;;;23.00;99.90;;;;;;5052282;28;20272;-66
2021/09/07 12:35:38;;;;;;;9.65;8.05;;;22.90;99.90;;;;;;5043322;28;20204;-66
2021/09/07 12:38:11;;;;;;;9.80;7.82;;;23.00;99.90;;;;;;5052285;28;20186;-68
2021/09/07 12:40:40;;;;;;;9.77;7.93;;;23.00;99.90;;;;;;5052231;28;20280;-66
2021/09/07 12:43:13;;;;;;;10.98;8.38;;;22.90;99.90;;;;;;5052372;28;20263;-67
2021/09/07 12:45:43;;;;;;;10.10;7.82;;;22.80;99.90;;;;;;5052359;28;20272;-66